createdAt,value
2023-02-11T00:00:27.208Z,-0.07
2023-02-11T00:02:56.901Z,-0.09
2023-02-11T00:05:25.629Z,-0.37
2023-02-11T00:07:53.043Z,-0.16
2023-02-11T00:10:23.203Z,-0.17
2023-02-11T00:12:51.153Z,-0.13
2023-02-11T00:15:44.967Z,-0.30
2023-02-11T00:18:12.944Z,-0.27
2023-02-11T00:21:28.126Z,-0.42
2023-02-11T00:24:07.250Z,-0.41
2023-02-11T00:26:58.042Z,-0.32
2023-02-11T00:29:38.371Z,-0.17
2023-02-11T00:32:06.747Z,-0.26
2023-02-11T00:34:36.013Z,-0.56
2023-02-11T00:37:27.060Z,-0.57
2023-02-11T00:40:06.950Z,-0.59
2023-02-11T00:42:58.947Z,-0.52
2023-02-11T00:45:38.264Z,-0.52
2023-02-11T00:48:28.972Z,-0.75
2023-02-11T00:51:08.607Z,-0.54
2023-02-11T00:54:00.173Z,-0.45
2023-02-11T00:56:42.071Z,-0.54
2023-02-11T00:59:33.039Z,-0.58
2023-02-11T01:02:12.236Z,-0.54
2023-02-11T01:05:03.627Z,-0.64
2023-02-11T01:07:51.174Z,-0.83
2023-02-11T01:10:56.211Z,-0.72
2023-02-11T01:13:47.792Z,-0.61
2023-02-11T01:16:28.992Z,-0.74
2023-02-11T01:19:16.483Z,-0.66
2023-02-11T01:21:46.712Z,-0.66
2023-02-11T01:24:29.166Z,-0.71
2023-02-11T01:27:32.792Z,-0.82
2023-02-11T01:30:14.150Z,-0.88
2023-02-11T01:33:04.937Z,-0.90
2023-02-11T01:35:44.556Z,-0.85
2023-02-11T01:38:40.958Z,-0.90
2023-02-11T01:41:32.153Z,-0.80
2023-02-11T01:44:28.153Z,-1.21
2023-02-11T01:47:07.319Z,-0.98
2023-02-11T01:50:01.809Z,-0.78
2023-02-11T01:52:41.419Z,-0.95
2023-02-11T02:00:04.592Z,-0.82
2023-02-11T02:02:58.961Z,-1.19
2023-02-11T02:06:03.633Z,-1.04
2023-02-11T02:09:04.066Z,-0.94
2023-02-11T02:11:31.869Z,-0.86
2023-02-11T02:13:59.976Z,-1.22
2023-02-11T02:16:36.594Z,-1.35
2023-02-11T02:19:10.269Z,-1.19
2023-02-11T02:22:11.202Z,-1.04
2023-02-11T02:25:06.910Z,-0.98
2023-02-11T02:28:06.379Z,-1.00
2023-02-11T02:31:07.490Z,-1.13
2023-02-11T02:34:09.761Z,-1.25
2023-02-11T02:36:58.066Z,-1.24
2023-02-11T02:39:50.608Z,-1.24
2023-02-11T02:42:31.046Z,-1.21
2023-02-11T02:45:22.010Z,-1.05
2023-02-11T02:48:01.297Z,-1.11
2023-02-11T02:51:09.897Z,-1.24
2023-02-11T02:54:01.195Z,-1.18
2023-02-11T02:56:58.132Z,-1.12
2023-02-11T03:00:15.265Z,-1.17
2023-02-11T03:03:17.811Z,-1.16
2023-02-11T03:06:17.998Z,-1.13
2023-02-11T03:09:06.240Z,-1.19
2023-02-11T03:11:57.138Z,-1.23
2023-02-11T03:14:27.120Z,-1.45
2023-02-11T03:17:17.637Z,-1.37
2023-02-11T03:19:47.047Z,-1.16
2023-02-11T03:22:43.119Z,-1.16
2023-02-11T03:25:10.706Z,-1.16
2023-02-11T03:27:54.419Z,-1.21
2023-02-11T03:30:31.173Z,-1.29
2023-02-11T03:33:05.857Z,-1.15
2023-02-11T03:35:58.562Z,-1.17
2023-02-11T03:38:31.124Z,-1.35
2023-02-11T03:41:06.057Z,-1.30
2023-02-11T03:43:58.419Z,-1.30
2023-02-11T03:46:39.426Z,-1.38
2023-02-11T03:49:45.587Z,-1.36
2023-02-11T03:52:26.473Z,-1.36
2023-02-11T03:54:57.082Z,-1.41
2023-02-11T03:57:24.773Z,-1.53
2023-02-11T03:59:57.958Z,-1.46
2023-02-11T04:02:30.791Z,-1.45
2023-02-11T04:04:58.924Z,-1.54
2023-02-11T04:07:26.380Z,-1.43
2023-02-11T04:09:54.257Z,-1.40
2023-02-11T04:12:22.965Z,-1.56
2023-02-11T04:14:50.559Z,-1.63
2023-02-11T04:17:42.290Z,-1.48
2023-02-11T04:20:10.931Z,-1.50
2023-02-11T04:22:52.826Z,-1.49
2023-02-11T04:25:32.153Z,-1.83
2023-02-11T04:28:00.806Z,-1.75
2023-02-11T04:30:50.051Z,-1.51
2023-02-11T04:33:38.784Z,-1.53
2023-02-11T04:36:08.715Z,-1.46
2023-02-11T04:39:00.104Z,-1.51
2023-02-11T04:41:39.143Z,-1.42
2023-02-11T04:48:50.693Z,-1.43
2023-02-11T04:51:42.384Z,-1.62
2023-02-11T04:54:22.330Z,-1.73
2023-02-11T04:57:13.849Z,-1.74
2023-02-11T04:59:42.342Z,-1.84
2023-02-11T05:02:11.056Z,-1.98
2023-02-11T05:04:50.039Z,-1.83
2023-02-11T05:07:41.131Z,-1.85
2023-02-11T05:10:20.099Z,-1.67
2023-02-11T05:13:10.845Z,-1.82
2023-02-11T05:15:50.716Z,-1.73
2023-02-11T05:18:42.915Z,-1.54
2023-02-11T05:21:22.343Z,-1.55
2023-02-11T05:24:13.892Z,-1.69
2023-02-11T05:26:53.128Z,-1.55
2023-02-11T05:29:43.895Z,-1.56
2023-02-11T05:32:23.248Z,-1.56
2023-02-11T05:35:14.866Z,-1.62
2023-02-11T05:37:54.348Z,-1.69
2023-02-11T05:40:45.910Z,-1.72
2023-02-11T05:43:25.193Z,-1.62
2023-02-11T05:46:17.659Z,-1.63
2023-02-11T05:48:57.106Z,-1.63
2023-02-11T05:51:47.944Z,-1.74
2023-02-11T05:58:40.852Z,-1.55
2023-02-11T06:01:31.952Z,-1.75
2023-02-11T06:04:23.012Z,-1.79
2023-02-11T06:07:02.409Z,-1.65
2023-02-11T06:09:53.864Z,-1.75
2023-02-11T06:12:32.957Z,-1.52
2023-02-11T06:15:23.920Z,-1.64
2023-02-11T06:18:06.246Z,-1.63
2023-02-11T06:21:01.830Z,-1.52
2023-02-11T06:23:41.042Z,-1.50
2023-02-11T06:26:32.871Z,-1.57
2023-02-11T06:29:02.678Z,-1.68
2023-02-11T06:31:53.915Z,-1.75
2023-02-11T06:34:32.998Z,-1.54
2023-02-11T06:37:24.129Z,-1.43
2023-02-11T06:40:04.271Z,-1.47
2023-02-11T06:42:55.915Z,-1.05
2023-02-11T06:45:35.049Z,-1.18
2023-02-11T06:48:28.725Z,-0.93
2023-02-11T06:51:10.040Z,-0.87
2023-02-11T06:54:00.858Z,-0.70
2023-02-11T06:56:41.267Z,-0.60
2023-02-11T06:59:33.842Z,-0.56
2023-02-11T07:02:13.229Z,-0.44
2023-02-11T07:05:10.113Z,-0.40
2023-02-11T07:07:51.782Z,-0.28
2023-02-11T07:10:42.849Z,-0.02
2023-02-11T07:13:21.992Z,-0.04
2023-02-11T07:16:15.343Z,0.05
2023-02-11T07:18:55.023Z,0.16
2023-02-11T07:21:45.848Z,0.19
2023-02-11T07:24:25.499Z,0.29
2023-02-11T07:30:57.419Z,0.56
2023-02-11T07:37:17.381Z,0.70
2023-02-11T07:40:34.414Z,0.81
2023-02-11T07:43:26.594Z,1.02
2023-02-11T07:46:27.746Z,1.09
2023-02-11T07:49:12.629Z,1.46
2023-02-11T07:51:43.485Z,1.62
2023-02-11T07:55:06.414Z,1.52
2023-02-11T08:00:02.371Z,1.68
2023-02-11T08:02:33.273Z,1.93
2023-02-11T08:05:01.815Z,2.22
2023-02-11T08:07:30.331Z,2.28
2023-02-11T08:09:58.122Z,2.20
2023-02-11T08:12:44.799Z,2.67
2023-02-11T08:15:12.707Z,2.81
2023-02-11T08:17:47.053Z,2.85
2023-02-11T08:20:17.061Z,3.16
2023-02-11T08:22:45.742Z,3.37
2023-02-11T08:25:24.260Z,3.33
2023-02-11T08:27:52.517Z,3.73
2023-02-11T08:30:25.654Z,3.87
2023-02-11T08:32:56.978Z,3.61
2023-02-11T08:35:26.256Z,3.72
2023-02-11T08:37:54.469Z,3.65
2023-02-11T08:40:23.029Z,3.70
2023-02-11T08:43:05.691Z,4.09
2023-02-11T08:45:37.831Z,4.26
2023-02-11T08:48:43.644Z,4.23
2023-02-11T08:51:28.335Z,4.30
2023-02-11T08:53:56.357Z,4.29
2023-02-11T08:56:25.003Z,4.00
2023-02-11T08:58:53.182Z,4.06
2023-02-11T09:01:24.267Z,3.93
2023-02-11T09:03:53.067Z,4.13
2023-02-11T09:06:21.227Z,4.20
2023-02-11T09:08:51.087Z,4.35
2023-02-11T09:11:21.513Z,4.88
2023-02-11T09:13:49.048Z,4.77
2023-02-11T09:16:19.982Z,4.81
2023-02-11T09:18:48.700Z,5.26
2023-02-11T09:21:17.561Z,5.28
2023-02-11T09:23:47.812Z,5.19
2023-02-11T09:26:24.749Z,5.50
2023-02-11T09:28:53.166Z,5.30
2023-02-11T09:31:23.257Z,5.15
2023-02-11T09:33:54.036Z,5.43
2023-02-11T09:36:24.652Z,5.74
2023-02-11T09:38:55.038Z,5.77
2023-02-11T09:41:41.106Z,5.95
2023-02-11T09:44:25.950Z,5.75
2023-02-11T09:47:00.005Z,5.54
2023-02-11T09:49:37.266Z,6.31
2023-02-11T09:52:20.425Z,6.52
2023-02-11T09:54:55.121Z,6.71
2023-02-11T09:57:29.221Z,6.95
2023-02-11T09:59:57.800Z,7.29
2023-02-11T10:02:55.046Z,7.20
2023-02-11T10:05:36.796Z,7.23
2023-02-11T10:08:20.740Z,7.19
2023-02-11T10:11:29.650Z,7.21
2023-02-11T10:14:37.457Z,7.64
2023-02-11T10:17:27.696Z,7.92
2023-02-11T10:20:37.248Z,7.95
2023-02-11T10:23:24.735Z,8.08
2023-02-11T10:25:54.795Z,7.96
2023-02-11T10:28:35.438Z,8.45
2023-02-11T10:31:06.144Z,8.31
2023-02-11T10:33:45.773Z,8.65
2023-02-11T10:36:15.085Z,8.43
2023-02-11T10:38:43.488Z,7.99
2023-02-11T10:41:18.164Z,8.62
2023-02-11T10:43:46.236Z,8.53
2023-02-11T10:46:18.068Z,8.47
2023-02-11T10:48:51.659Z,7.90
2023-02-11T10:51:30.239Z,7.96
2023-02-11T10:54:04.104Z,7.90
2023-02-11T10:56:35.198Z,8.12
2023-02-11T10:59:14.975Z,8.16
2023-02-11T11:01:49.208Z,8.46
2023-02-11T11:04:34.409Z,8.66
2023-02-11T11:07:27.245Z,8.66
2023-02-11T11:10:02.880Z,8.65
2023-02-11T11:12:36.449Z,8.92
2023-02-11T11:15:10.399Z,9.27
2023-02-11T11:17:38.585Z,9.35
2023-02-11T11:20:35.407Z,9.77
2023-02-11T11:23:19.152Z,9.94
2023-02-11T11:25:59.720Z,10.05
2023-02-11T11:28:28.706Z,10.19
2023-02-11T11:30:57.157Z,10.28
2023-02-11T11:33:35.825Z,9.23
2023-02-11T11:36:09.120Z,9.96
2023-02-11T11:38:38.696Z,10.67
2023-02-11T11:41:33.564Z,10.50
2023-02-11T11:44:26.180Z,10.55
2023-02-11T11:47:12.568Z,10.83
2023-02-11T11:49:49.652Z,10.60
2023-02-11T11:52:36.187Z,10.24
2023-02-11T11:55:50.313Z,10.11
2023-02-11T11:58:20.967Z,10.45
2023-02-11T12:01:03.852Z,9.91
2023-02-11T12:03:49.752Z,10.59
2023-02-11T12:06:23.271Z,10.90
2023-02-11T12:09:17.205Z,10.49
2023-02-11T12:11:57.001Z,10.64
2023-02-11T12:14:47.051Z,10.94
2023-02-11T12:17:34.126Z,10.91
2023-02-11T12:20:18.224Z,10.67
2023-02-11T12:22:52.295Z,10.21
2023-02-11T12:25:27.374Z,10.65
2023-02-11T12:28:03.833Z,10.51
2023-02-11T12:30:58.825Z,10.13
2023-02-11T12:33:34.460Z,10.58
2023-02-11T12:36:15.544Z,10.56
2023-02-11T12:38:51.303Z,11.07
2023-02-11T12:41:56.992Z,10.64
2023-02-11T12:44:51.899Z,10.71
2023-02-11T12:47:28.989Z,10.58
2023-02-11T12:50:25.354Z,10.97
2023-02-11T12:53:18.888Z,10.67
2023-02-11T12:55:48.993Z,11.08
2023-02-11T12:58:25.399Z,10.60
2023-02-11T13:01:11.043Z,10.67
2023-02-11T13:03:49.010Z,10.63
2023-02-11T13:06:27.924Z,10.62
2023-02-11T13:09:01.533Z,10.52
2023-02-11T13:11:41.380Z,11.01
2023-02-11T13:14:23.947Z,10.88
2023-02-11T13:16:51.719Z,10.93
2023-02-11T13:19:36.131Z,10.59
2023-02-11T13:22:20.067Z,10.54
2023-02-11T13:24:57.006Z,10.80
2023-02-11T13:27:44.068Z,10.46
2023-02-11T13:30:36.932Z,10.67
2023-02-11T13:33:06.699Z,10.66
2023-02-11T13:35:40.091Z,10.80
2023-02-11T13:38:23.801Z,10.08
2023-02-11T13:41:17.581Z,10.40
2023-02-11T13:43:45.561Z,10.24
2023-02-11T13:46:15.370Z,10.47
2023-02-11T13:48:48.238Z,10.22
2023-02-11T13:51:17.735Z,10.55
2023-02-11T13:53:57.652Z,10.48
2023-02-11T13:56:37.766Z,10.35
2023-02-11T13:59:25.262Z,10.59
2023-02-11T14:02:18.049Z,10.12
2023-02-11T14:05:34.366Z,10.16
2023-02-11T14:08:26.516Z,10.53
2023-02-11T14:11:14.812Z,10.73
2023-02-11T14:14:02.575Z,10.66
2023-02-11T14:16:38.066Z,11.01
2023-02-11T14:19:06.732Z,10.82
2023-02-11T14:21:37.438Z,10.66
2023-02-11T14:24:05.047Z,10.14
2023-02-11T14:26:46.769Z,10.39
2023-02-11T14:29:18.016Z,9.99
2023-02-11T14:32:18.207Z,10.14
2023-02-11T14:35:10.717Z,10.65
2023-02-11T14:37:50.365Z,10.54
2023-02-11T14:40:32.502Z,10.49
2023-02-11T14:43:14.234Z,10.29
2023-02-11T14:45:51.666Z,10.13
2023-02-11T14:48:21.237Z,10.33
2023-02-11T14:50:55.028Z,10.05
2023-02-11T14:53:24.313Z,10.10
2023-02-11T14:55:54.259Z,10.54
2023-02-11T14:58:32.666Z,10.73
2023-02-11T15:01:03.306Z,10.37
2023-02-11T15:03:35.218Z,10.79
2023-02-11T15:06:07.189Z,10.72
2023-02-11T15:08:37.017Z,10.66
2023-02-11T15:11:11.597Z,10.42
2023-02-11T15:13:39.237Z,10.25
2023-02-11T15:16:09.372Z,10.01
2023-02-11T15:18:42.157Z,9.99
2023-02-11T15:21:12.143Z,10.06
2023-02-11T15:23:41.137Z,9.92
2023-02-11T15:26:21.378Z,10.11
2023-02-11T15:28:52.069Z,10.09
2023-02-11T15:31:25.497Z,10.08
2023-02-11T15:33:54.176Z,10.11
2023-02-11T15:36:28.761Z,10.01
2023-02-11T15:39:16.575Z,10.07
2023-02-11T15:41:44.544Z,9.65
2023-02-11T15:44:32.367Z,9.63
2023-02-11T15:46:59.987Z,9.82
2023-02-11T15:49:28.261Z,9.72
2023-02-11T15:51:57.386Z,9.69
2023-02-11T15:54:29.432Z,9.78
2023-02-11T15:57:05.996Z,9.64
2023-02-11T15:59:40.139Z,9.26
2023-02-11T16:02:29.767Z,9.58
2023-02-11T16:05:00.912Z,9.51
2023-02-11T16:07:49.852Z,9.57
2023-02-11T16:10:23.988Z,9.28
2023-02-11T16:12:59.213Z,9.70
2023-02-11T16:15:34.055Z,9.33
2023-02-11T16:18:05.779Z,9.48
2023-02-11T16:20:36.879Z,9.15
2023-02-11T16:23:08.041Z,9.30
2023-02-11T16:25:36.566Z,9.41
2023-02-11T16:28:05.274Z,9.42
2023-02-11T16:30:37.540Z,9.40
2023-02-11T16:33:05.737Z,9.27
2023-02-11T16:35:33.456Z,9.19
2023-02-11T16:38:00.879Z,9.28
2023-02-11T16:40:28.668Z,9.22
2023-02-11T16:42:56.378Z,9.17
2023-02-11T16:45:23.999Z,9.07
2023-02-11T16:47:52.023Z,9.10
2023-02-11T16:50:22.535Z,9.24
2023-02-11T16:52:50.209Z,9.19
2023-02-11T16:55:18.739Z,9.30
2023-02-11T16:57:46.684Z,9.26
2023-02-11T17:00:16.274Z,9.07
2023-02-11T17:02:44.371Z,8.80
2023-02-11T17:05:23.045Z,8.89
2023-02-11T17:07:51.731Z,8.69
2023-02-11T17:10:23.664Z,8.68
2023-02-11T17:12:52.666Z,8.85
2023-02-11T17:15:20.619Z,9.00
2023-02-11T17:17:48.461Z,9.12
2023-02-11T17:20:16.816Z,8.84
2023-02-11T17:22:44.514Z,9.03
2023-02-11T17:25:12.432Z,8.79
2023-02-11T17:27:40.695Z,8.94
2023-02-11T17:30:09.363Z,8.69
2023-02-11T17:32:37.516Z,8.82
2023-02-11T17:35:08.379Z,8.80
2023-02-11T17:37:36.191Z,8.29
2023-02-11T17:40:03.973Z,8.46
2023-02-11T17:42:31.892Z,8.71
2023-02-11T17:44:59.500Z,8.62
2023-02-11T17:47:27.364Z,8.62
2023-02-11T17:49:55.266Z,8.44
2023-02-11T17:52:24.322Z,8.46
2023-02-11T17:54:52.019Z,8.43
2023-02-11T17:57:20.068Z,8.57
2023-02-11T17:59:47.662Z,8.36
2023-02-11T18:02:15.277Z,8.53
2023-02-11T18:04:43.478Z,8.39
2023-02-11T18:07:11.294Z,8.24
2023-02-11T18:09:40.307Z,8.38
2023-02-11T18:12:08.622Z,8.54
2023-02-11T18:14:38.654Z,8.39
2023-02-11T18:17:06.704Z,8.20
2023-02-11T18:19:36.637Z,8.31
2023-02-11T18:22:04.470Z,8.24
2023-02-11T18:24:32.456Z,8.35
2023-02-11T18:27:00.328Z,8.41
2023-02-11T18:29:28.104Z,8.52
2023-02-11T18:31:56.987Z,8.41
2023-02-11T18:34:25.681Z,8.32
2023-02-11T18:36:53.996Z,8.33
2023-02-11T18:39:24.201Z,8.52
2023-02-11T18:41:56.801Z,8.59
2023-02-11T18:44:25.899Z,8.32
2023-02-11T18:46:54.112Z,8.32
2023-02-11T18:49:21.696Z,8.31
2023-02-11T18:51:49.322Z,8.23
2023-02-11T18:54:17.337Z,8.25
2023-02-11T18:56:44.970Z,7.92
2023-02-11T18:59:13.110Z,8.08
2023-02-11T19:01:43.394Z,7.97
2023-02-11T19:04:11.537Z,8.03
2023-02-11T19:06:39.552Z,8.04
2023-02-11T19:09:10.337Z,8.19
2023-02-11T19:11:53.898Z,8.09
2023-02-11T19:14:24.769Z,8.37
2023-02-11T19:16:54.695Z,8.38
2023-02-11T19:19:24.212Z,8.32
2023-02-11T19:21:51.921Z,7.95
2023-02-11T19:24:20.249Z,8.38
2023-02-11T19:26:53.086Z,8.19
2023-02-11T19:29:20.859Z,8.57
2023-02-11T19:31:49.997Z,8.56
2023-02-11T19:34:20.066Z,8.58
2023-02-11T19:36:49.534Z,8.39
2023-02-11T19:39:18.523Z,8.31
2023-02-11T19:41:46.339Z,8.20
2023-02-11T19:44:17.238Z,8.36
2023-02-11T19:46:46.073Z,8.40
2023-02-11T19:49:22.873Z,8.32
2023-02-11T19:51:52.420Z,8.56
2023-02-11T19:54:20.430Z,8.22
2023-02-11T19:56:48.865Z,8.33
2023-02-11T19:59:16.758Z,8.50
2023-02-11T20:01:47.642Z,8.34
2023-02-11T20:04:16.915Z,8.27
2023-02-11T20:06:44.839Z,8.31
2023-02-11T20:09:14.283Z,8.51
2023-02-11T20:11:42.729Z,8.57
2023-02-11T20:14:13.035Z,8.54
2023-02-11T20:16:48.758Z,8.35
2023-02-11T20:19:22.313Z,8.25
2023-02-11T20:21:52.562Z,8.23
2023-02-11T20:24:21.983Z,8.31
2023-02-11T20:27:01.884Z,8.49
2023-02-11T20:29:59.425Z,8.33
2023-02-11T20:32:26.910Z,8.45
2023-02-11T20:34:54.725Z,8.32
2023-02-11T20:37:22.316Z,8.44
2023-02-11T20:39:51.005Z,8.62
2023-02-11T20:42:19.365Z,8.42
2023-02-11T20:44:49.617Z,8.36
2023-02-11T20:47:17.079Z,8.31
2023-02-11T20:49:44.856Z,8.10
2023-02-11T20:52:12.416Z,8.18
2023-02-11T20:54:39.837Z,8.25
2023-02-11T20:57:07.909Z,8.14
2023-02-11T20:59:35.382Z,7.88
2023-02-11T21:02:02.968Z,7.99
2023-02-11T21:04:30.991Z,8.16
2023-02-11T21:07:00.435Z,8.35
2023-02-11T21:09:30.454Z,8.35
2023-02-11T21:11:59.156Z,8.72
2023-02-11T21:14:27.148Z,8.79
2023-02-11T21:16:55.100Z,8.66
2023-02-11T21:19:23.038Z,8.30
2023-02-11T21:21:51.359Z,8.46
2023-02-11T21:24:18.839Z,8.31
2023-02-11T21:26:46.696Z,8.17
2023-02-11T21:29:14.157Z,8.50
2023-02-11T21:31:42.239Z,8.41
2023-02-11T21:34:10.294Z,8.62
2023-02-11T21:36:37.773Z,8.70
2023-02-11T21:39:06.059Z,8.82
2023-02-11T21:41:34.937Z,8.61
2023-02-11T21:44:02.468Z,8.42
2023-02-11T21:46:31.012Z,8.43
2023-02-11T21:49:00.409Z,8.36
2023-02-11T21:51:27.936Z,7.73
2023-02-11T21:53:56.813Z,7.72
2023-02-11T21:56:28.144Z,8.02
2023-02-11T21:58:57.497Z,8.20
2023-02-11T22:01:30.875Z,8.32
2023-02-11T22:03:59.041Z,8.50
2023-02-11T22:06:31.006Z,8.16
2023-02-11T22:09:01.786Z,7.78
2023-02-11T22:11:29.516Z,7.86
2023-02-11T22:13:57.906Z,7.81
2023-02-11T22:16:27.070Z,8.16
2023-02-11T22:18:56.555Z,8.22
2023-02-11T22:21:24.581Z,8.11
2023-02-11T22:23:55.165Z,8.14
2023-02-11T22:26:25.608Z,8.02
2023-02-11T22:28:53.930Z,7.95
2023-02-11T22:31:34.252Z,8.00
2023-02-11T22:34:07.796Z,8.07
2023-02-11T22:37:02.500Z,8.03
2023-02-11T22:39:35.123Z,7.77
2023-02-11T22:42:02.756Z,7.53
2023-02-11T22:44:30.367Z,7.74
2023-02-11T22:47:00.669Z,7.35
2023-02-11T22:49:29.062Z,7.09
2023-02-11T22:51:56.703Z,7.56
2023-02-11T22:54:51.551Z,7.78
2023-02-11T22:57:30.866Z,7.91
2023-02-11T23:00:26.427Z,7.86
2023-02-11T23:02:54.698Z,7.78
2023-02-11T23:05:23.037Z,7.61
2023-02-11T23:07:56.765Z,7.17
2023-02-11T23:10:47.629Z,7.24
2023-02-11T23:13:26.807Z,7.31
2023-02-11T23:16:20.888Z,7.39
2023-02-11T23:19:01.039Z,7.23
2023-02-11T23:21:53.211Z,7.31
2023-02-11T23:24:32.994Z,7.96
2023-02-11T23:27:27.726Z,7.83
2023-02-11T23:30:07.326Z,7.78
2023-02-11T23:33:22.280Z,7.77
2023-02-11T23:36:02.052Z,7.32
2023-02-11T23:38:54.591Z,7.64
2023-02-11T23:41:33.797Z,7.57
2023-02-11T23:44:28.485Z,7.86
2023-02-11T23:47:07.940Z,7.84
2023-02-11T23:50:00.280Z,7.65
2023-02-11T23:52:39.867Z,7.45
2023-02-11T23:55:21.651Z,7.40
2023-02-11T23:58:13.432Z,7.63
